Main page
METAR-TAF:

METAR-TAF

Airports :

Soyo Airport

Soyo, Angola

latitude: 6-8-28S, longitude: 12-22-19E, elevation: 5 m

Current weather observation

The report was made 46 minutes ago, at 09:00 UTC
Wind 13 kt from the West/Southwest
Temperature
Pressure
Visibility: 9000 m
Broken clouds at a height of 1200 ft

METAR: FNSO 240900Z 24013KT 9000 BKN012 ///// Q////

Time: 10:46 (09:46 UTC)

Forecast

The report was made 10 hours and 46 minutes ago, at 23:00 UTC
Forecast valid from 24 at 00 UTC to 24 at 12 UTC
Wind 5 kt from the West
Visibility 10 km or more
Scattered clouds at a height of 1000 ft
Broken clouds at a height of 2000 ft
Few clouds at a height of 2500 ft, Cumulonimbus.
Probability 30% :
Temporary
from 24 at 07 UTC to 24 at 12 UTC
Wind 9 kt from the South
Visibility: 6000 m
Overcast at a height of 2800 ft
drizzle

TAF: FNSO 232300Z 2400/2412 26005KT 9999 SCT010 BKN020 FEW025CB PROB30 TEMPO 2407/2412 19009KT 6000 DZ OVC028

Weather observations and forecasts of more than 4000 airports (METAR and TAF reports).

The available stations are represented by yellow and red dots on the map.

Hover mouse over dot to see the name of the station.

Then click to see weather observations and forecasts.

To change the map : click on the green buttons with a black cross to zoom in, on the green button with a dash to zoom out, or on the green arrows for adjacent maps.


METAR-TAF: